LFAT/LTQ METAR and TAF weather

Enter ICAO airport designator
Station Type Date Time Source
LFAT METAR 2019/02/23 00:30 UTC NOAA

LFAT 230030Z AUTO 11005KT 4800 BR NSC 08/07 Q1035


Station Type Date Time Source
LFAT Decoded METAR 2019/02/23 00:30 UTC NOAA

Le Touquet, France (LFAT) 50-31N 001-37E 14M
Feb 22, 2019 - 07:30 PM EST / 2019.02.23 0030 UTC
Wind: from the ESE (110 degrees) at 6 MPH (5 KT):0
Visibility: 2 mile(s):0
Weather: mist
Temperature: 46 F (8 C)
Dew Point: 44 F (7 C)
Relative Humidity: 93%
Pressure (altimeter): 30.56 in. Hg (1035 hPa)
ob: LFAT 230030Z AUTO 11005KT 4800 BR NSC 08/07 Q1035
cycle: 0

Station Type Date Time Source
LFAT TAF 2018/07/14 09:21 UTC NOAA

TAF TAF LFAT 140800Z 1409/1421 09004KT 8000 NSC
BECMG 1409/1411 30010KT


Example: see airport list